Tiempo atmosférico en la estación meteorológica de Muñotello, Ávila (1178 m.)



Fecha
DESCASC
Temp. máxima en grados centígrados (hora)
DESCASC
Temp. mínima en grados centígrados (hora)
DESCASC
Temp. media en grados centígrados
DESCASC
Racha de viento máxima en m/sg (hora)
DESCASC
Velocidad máxima media en intervalos de 10 minutos(hora)
DESCASC
Precipitaciones diarias en mm
DESCASC
Precipitaciones de 00:00 a 06:00 en mm
DESCASC
Precipitaciones de 06:00 a 12:00 en mm
DESCASC
Precipitaciones de 12:00 a 18:00 en mm
DESCASC
Precipitaciones de 18:00 a 24:00 en mm
DESCASC
25-02-2021 10.7 (15:10) 3.7 (03:30) 7.2 10.28 (12:30) 6.67 (12:30) 0 0 0 0 0
24-02-2021 12.8 (15:20) 4.8 (05:50) 8.8 16.11 (14:30) 7.22 (12:40) 0 0 0 0 0
23-02-2021 10.2 (16:00) -3.3 (07:50) 3.4 14.17 (22:30) 8.61 (22:40) 0 0 0 0 0
22-02-2021 6.8 (14:40) -0.3 (22:50) 3.3 11.94 (10:50) 8.33 (10:50) 0.8 0.8 0 0 0
21-02-2021 10.6 (05:00) 0.7 (00:00) 5.7 24.72 (06:10) 15.83 (06:10) 28.2 0 7.8 12.8 7.6
20-02-2021 11.5 (04:20) 7.6 (00:00) 9.5 29.72 (10:40) 20.83 (10:30) 0 0 0 0 0
19-02-2021 14.3 (14:30) 3.2 (00:00) 8.8 22.22 (21:00) 13.61 (23:30) 0 0 0 0 0
18-02-2021 13.2 (13:50) 7.3 (00:00) 10.3 17.5 (11:50) 10.28 (12:10) 0 0 0 0 0
17-02-2021 15.4 (16:40) 4.5 (00:00) 9.9 11.39 (16:40) 6.39 (21:10) 0 0 0 0 0
16-02-2021 16 (14:00) 7.2 (00:00) 11.6 14.72 (13:20) 8.61 (04:50) 0 0 0 0 0
15-02-2021 13.8 (14:10) 1.7 (00:00) 7.8 17.22 (15:30) 11.39 (14:40) 0 0 0 0 0
14-02-2021 15.3 (16:10) 0 (00:00) 7.7 5.83 (17:10) 3.33 (17:10) 0 0 0 0 0
13-02-2021 11.9 (16:10) 2.1 (00:00) 7 9.44 (13:20) 5.28 (16:50) 0 0 0 0 0
12-02-2021 10.2 (02:30) 3.6 (00:00) 6.9 18.61 (06:20) 10.83 (06:20) 8.2 5.6 2.6 0 0
11-02-2021 13.7 (16:20) 7.1 (00:00) 10.4 11.67 (03:30) 5.83 (03:30) 0 0 0 0 0
10-02-2021 9.6 (16:10) 3.3 (00:00) 6.5 21.94 (03:00) 13.61 (10:00) 9.4 7.8 1.6 0 0
09-02-2021 6.8 (04:10) 1.4 (00:00) 4.1 22.5 (18:00) 13.89 (18:20) 28.4 0.2 7.4 16.2 4.6
08-02-2021 7.7 (00:10) 3.1 (00:00) 5.4 19.44 (14:00) 13.33 (14:00) 14.2 9.6 0.8 2.2 1.6
07-02-2021 7.9 (13:50) 0.8 (00:00) 4.4 16.11 (19:20) 9.72 (19:00) 0.8 0 0 0.6 0.2
06-02-2021 9.2 (14:20) 2.8 (00:00) 6 7.5 (03:50) 5.28 (01:00) 7.6 1 0 6.4 0.2
05-02-2021 9.1 (11:50) 5.4 (00:00) 7.3 13.61 (03:40) 8.33 (03:30) 5.8 2.6 0.4 0 2.8
04-02-2021 10.8 (13:00) 3.8 (00:00) 7.3 9.44 (23:40) 6.39 (15:30) 1.6 0 0.2 0.8 0.6
03-02-2021 11.9 (16:10) 3.8 (00:00) 7.8 15 (03:20) 8.89 (05:30) 1.2 0 0 0 1.2
02-02-2021 13.9 (14:40) 4.3 (00:00) 9.1 11.67 (04:00) 8.33 (03:10) 0 0 0 0 0
01-02-2021 11.3 (13:10) 6.7 (00:00) 9 22.5 (08:30) 13.33 (06:50) 0 0 0 0 0
31-01-2021 10.9 (15:10) 3.9 (00:00) 7.4 23.33 (10:00) 15.28 (11:40) 3 0.6 1.2 1.2 0
30-01-2021 14.5 (00:50) 3.6 (00:00) 9 22.78 (23:00) 13.33 (11:20) 14.4 7.8 3.4 1 2.2

Gráficas

Temp. máximas Temp. mínimas Temp. medias Precipitaciones Rachas de viento máximas Velocidades máximas media en intervalos de 10 minutos

Datos horarios

Fecha y hora oficial Temperatura (ºC) Velocidad del viento (km/h) Dirección del viento Racha (km/h) Dirección de racha Precipitación (mm) Presión (hPa) Tendencia (hPa) Humedad (%)
2021-02-28 23:00:00 6.3 12 Sudeste 35 Sudeste 0 -- -- 75
2021-02-28 22:00:00 6.7 13 Este 31 Este 0 -- -- 75
2021-02-28 21:00:00 7.2 10 Sudeste 21 Sudeste 0 -- -- 68
2021-02-28 20:00:00 7.5 6 Sur 28 Sudeste 0 -- -- 69
2021-02-28 19:00:00 8.3 7 Sudeste 27 Sudeste 0.2 -- -- 69
2021-02-28 18:00:00 9.3 5 Sur 28 Sur 0 -- -- 63
2021-02-28 17:00:00 10.2 12 Sur 37 Sur 0 -- -- 62
2021-02-28 16:00:00 10.9 23 Sur 37 Sudeste 0 -- -- 58
2021-02-28 15:00:00 11.2 24 Sudeste 39 Sudeste 0 -- -- 56
2021-02-28 14:00:00 12.4 20 Sur 33 Sudeste 0 -- -- 52
2021-02-28 13:00:00 11.2 3 Noroeste 7 Norte 0 -- -- 62
2021-02-28 12:00:00 8.6 3 Norte 7 Noroeste 0 -- -- 70
2021-02-28 11:00:00 7.1 2 Norte 5 Norte 0 -- -- 71
2021-02-28 10:00:00 5.4 0 Calma 3 Norte 0 -- -- 82
2021-02-28 09:00:00 3.8 0 Calma 3 Sudoeste 0 -- -- 85
2021-02-28 08:00:00 2.5 0 Calma 12 Sur 0 -- -- 86
2021-02-28 07:00:00 3.2 2 Sudoeste 8 Sur 0 -- -- 83
2021-02-28 06:00:00 3.3 4 Oeste 12 Oeste 0 -- -- 85
2021-02-28 05:00:00 2.4 8 Oeste 10 Oeste 0 -- -- 88
2021-02-28 04:00:00 2.8 3 Sur 10 Sur 0 -- -- 86
2021-02-28 03:00:00 4.5 0 Calma 11 Sur 0 -- -- 80
2021-02-28 02:00:00 4.7 8 Sur 11 Sur 0 -- -- 79
2021-02-28 01:00:00 5.6 6 Sur 10 Sur 0 -- -- 76
2021-02-28 00:00:00 5.7 6 Oeste 10 Sur 0 -- -- 76
2021-02-27 23:00:00 6.4 5 Sur 10 Sur 0 -- -- 72
2021-02-27 22:00:00 8 6 Sur 9 Sur 0 -- -- 66
2021-02-27 21:00:00 8.4 0 Calma 13 Sur 0 -- -- 63
2021-02-27 20:00:00 9.1 9 Sur 14 Sudeste 0 -- -- 59
2021-02-27 19:00:00 10.9 5 Este 17 Nordeste 0 -- -- 56
2021-02-27 18:00:00 13.2 11 Nordeste 19 Nordeste 0 -- -- 44
2021-02-27 17:00:00 14.2 13 Nordeste 22 Este 0 -- -- 44
2021-02-27 16:00:00 14.4 13 Nordeste 26 Este 0 -- -- 49
2021-02-27 15:00:00 15 14 Este 24 Este 0 -- -- 50
2021-02-27 14:00:00 14.3 7 Este 15 Este 0 -- -- 47
2021-02-27 13:00:00 12.9 6 Norte 15 Nordeste 0 -- -- 49
2021-02-27 12:00:00 12.5 3 Este 8 Este 0 -- -- 53
2021-02-27 11:00:00 10.4 3 Norte 5 Norte 0 -- -- 66
2021-02-27 10:00:00 6.4 0 Calma 4 Sur 0 -- -- 77
2021-02-27 09:00:00 4.7 0 Calma 6 Sur 0 -- -- 75
2021-02-27 08:00:00 4.1 3 Oeste 14 Sur 0 -- -- 75
2021-02-27 07:00:00 2.8 2 Sur 9 Sur 0 -- -- 80
2021-02-27 06:00:00 3.6 6 Sur 10 Sur 0 -- -- 78
2021-02-27 05:00:00 3.7 3 Sudoeste 8 Sur 0 -- -- 80
2021-02-27 04:00:00 4 3 Sur 8 Sudoeste 0 -- -- 73
2021-02-27 03:00:00 3.3 4 Oeste 7 Oeste 0 -- -- 85
2021-02-27 02:00:00 4.8 3 Sur 9 Sur 0 -- -- 80
2021-02-27 01:00:00 5.2 5 Sudoeste 10 Sur 0 -- -- 80
2021-02-27 00:00:00 6.1 4 Sur 10 Sur 0 -- -- 75
2021-02-26 23:00:00 6.4 0 Calma 6 Sur 0 -- -- 80
2021-02-26 22:00:00 6.7 3 Oeste 7 Sur 0 -- -- 80
2021-02-26 21:00:00 8 3 Sur 8 Sur 0 -- -- 73
2021-02-26 20:00:00 8.8 3 Sur 12 Este 0 -- -- 73
2021-02-26 19:00:00 10.5 7 Este 11 Este 0 -- -- 71
2021-02-26 18:00:00 11.7 8 Nordeste 14 Nordeste 0 -- -- 65
2021-02-26 17:00:00 12.6 6 Este 12 Nordeste 0 -- -- 59
2021-02-26 16:00:00 12.6 6 Nordeste 11 Este 0 -- -- 61
2021-02-26 15:00:00 12.6 5 Este 13 Este 0 -- -- 62
2021-02-26 14:00:00 11.3 5 Nordeste 17 Nordeste 0 -- -- 66
2021-02-26 13:00:00 11 6 Norte 17 Nordeste 0 -- -- 67
2021-02-26 12:00:00 9.6 10 Nordeste 27 Nordeste 0 -- -- 72
2021-02-26 11:00:00 9 10 Nordeste 21 Norte 0 -- -- 71
2021-02-26 10:00:00 6.2 4 Noroeste 10 Noroeste 0 -- -- 84
2021-02-26 09:00:00 5 2 Sudoeste 8 Oeste 0 -- -- 88
2021-02-26 08:00:00 4.6 5 Noroeste 14 Este 0 -- -- 88
2021-02-26 07:00:00 5.2 8 Este 14 Este 0 -- -- 87
2021-02-26 06:00:00 5.8 8 Este 15 Sudeste 0 -- -- 85
2021-02-26 05:00:00 6.4 0 Calma 10 Noroeste 0 -- -- 85
2021-02-26 04:00:00 6.9 3 Oeste 10 Norte 0 -- -- 82
2021-02-26 03:00:00 7.2 8 Nordeste 23 Sudeste 0 -- -- 79
2021-02-26 02:00:00 7.4 3 Este 9 Nordeste 0 -- -- 78
2021-02-26 01:00:00 7.3 4 Norte 26 Sudeste 0 -- -- 78
2021-02-26 00:00:00 7 4 Este 29 Este 0 -- -- 79
2021-02-25 23:00:00 8.1 22 Sudeste 35 Sudeste 0 -- -- 73
2021-02-25 22:00:00 6.4 0 Calma 9 Noroeste 0 -- -- 77
2021-02-25 21:00:00 6.9 0 Calma 9 Sur 0 -- -- 78
2021-02-25 20:00:00 7.7 8 Sudeste 20 Sur 0 -- -- 74
2021-02-25 19:00:00 8.3 12 Sudeste 18 Sudeste 0 -- -- 74
2021-02-25 18:00:00 9.3 12 Sudeste 18 Sudeste 0 -- -- 71
2021-02-25 17:00:00 10.1 6 Sudeste 17 Sudeste 0 -- -- 68
2021-02-25 16:00:00 10.7 10 Sudeste 26 Este 0 -- -- 64
2021-02-25 15:00:00 10.5 8 Sudeste 29 Sudeste 0 -- -- 64
2021-02-25 14:00:00 10.6 17 Sudeste 31 Este 0 -- -- 66
2021-02-25 13:00:00 9 18 Sudeste 37 Sudeste 0 -- -- 70
2021-02-25 12:00:00 8 18 Este 30 Este 0 -- -- 77
2021-02-25 11:00:00 7.2 13 Este 25 Este 0 -- -- 80
2021-02-25 10:00:00 5.4 9 Este 15 Este 0 -- -- 87
2021-02-25 09:00:00 4.7 6 Este 13 Este 0 -- -- 87
2021-02-25 08:00:00 4.4 5 Oeste 15 Oeste 0 -- -- 88
2021-02-25 07:00:00 4.8 6 Oeste 34 Este 0 -- -- 86
2021-02-25 06:00:00 4.8 18 Este 33 Este 0 -- -- 88
2021-02-25 05:00:00 4.2 7 Norte 15 Oeste 0 -- -- 92
2021-02-25 04:00:00 4.1 3 Sudeste 10 Noroeste 0 -- -- 92
2021-02-25 03:00:00 4.1 4 Noroeste 10 Noroeste 0 -- -- 87
2021-02-25 02:00:00 4.9 4 Oeste 8 Este 0 -- -- 87
2021-02-25 01:00:00 5.5 4 Nordeste 9 Este 0 -- -- 86
2021-02-25 00:00:00 6.1 0 Calma 11 Este 0 -- -- 84
2021-02-24 23:00:00 6.8 6 Nordeste 12 Norte 0 -- -- 83
2021-02-24 22:00:00 7.8 3 Nordeste 14 Este 0 -- -- 81
2021-02-24 21:00:00 8.8 6 Sur 17 Este 0 -- -- 74
2021-02-24 20:00:00 9.1 9 Nordeste 27 Este 0 -- -- 71
2021-02-24 19:00:00 9.8 11 Nordeste 28 Nordeste 0 -- -- 65
2021-02-24 18:00:00 11 11 Este 25 Este 0 -- -- 57
2021-02-24 17:00:00 12 12 Este 25 Sur 0 -- -- 54
2021-02-24 16:00:00 12.8 10 Este 42 Sudeste 0 -- -- 49
2021-02-24 15:00:00 12.5 9 Nordeste 58 Sur 0 -- -- 48
2021-02-24 14:00:00 11.9 22 Sudeste 46 Este 0 -- -- 54
2021-02-24 13:00:00 11.6 23 Sudeste 55 Sur 0 -- -- 55
2021-02-24 12:00:00 10.3 17 Este 52 Sur 0 -- -- 62
2021-02-24 11:00:00 9 15 Nordeste 40 Este 0 -- -- 67
2021-02-24 10:00:00 7.8 16 Nordeste 32 Este 0 -- -- 67
2021-02-24 09:00:00 6.7 11 Nordeste 29 Norte 0 -- -- 69
2021-02-24 08:00:00 5.7 16 Nordeste 26 Nordeste 0 -- -- 69
2021-02-24 07:00:00 6.1 14 Nordeste 33 Nordeste 0 -- -- 67
2021-02-24 06:00:00 5.2 11 Nordeste 25 Nordeste 0 -- -- 72
2021-02-24 05:00:00 6 15 Nordeste 38 Este 0 -- -- 69
2021-02-24 04:00:00 5.8 13 Este 36 Este 0 -- -- 71
2021-02-24 03:00:00 6.1 11 Este 39 Este 0 -- -- 70
2021-02-24 02:00:00 5.7 14 Este 35 Este 0 -- -- 72
2021-02-24 01:00:00 6.1 22 Nordeste 42 Este 0 -- -- 70
2021-02-24 00:00:00 6.2 18 Este 39 Este 0 -- -- 71
2021-02-23 23:00:00 6.2 23 Este 51 Sudeste 0 -- -- 73
2021-02-23 22:00:00 6.1 21 Este 41 Este 0 -- -- 73
2021-02-23 21:00:00 6.7 23 Sudeste 44 Este 0 -- -- 68
2021-02-23 20:00:00 6.7 13 Sudeste 42 Sur 0 -- -- 66
2021-02-23 19:00:00 8.2 27 Sur 46 Sur 0 -- -- 55
2021-02-23 18:00:00 9.1 19 Sur 40 Sudeste 0 -- -- 52
2021-02-23 17:00:00 9.8 20 Sudeste 48 Sudeste 0 -- -- 51
2021-02-23 16:00:00 10.2 17 Sur 46 Sur 0 -- -- 52
2021-02-23 15:00:00 9.9 26 Sur 46 Sur 0 -- -- 52
2021-02-23 14:00:00 9.5 27 Sur 49 Sur 0 -- -- 52
2021-02-23 13:00:00 8.6 28 Sur 47 Sur 0 -- -- 52
2021-02-23 12:00:00 7.9 18 Sudeste 41 Sur 0 -- -- 47
2021-02-23 11:00:00 3 5 Norte 13 Norte 0 -- -- 64
2021-02-23 10:00:00 1.1 2 Noroeste 8 Este 0 -- -- 71
2021-02-23 09:00:00 -0.1 0 Calma 6 Sudoeste 0 -- -- 63
2021-02-23 08:00:00 -3.3 0 Calma 6 Este 0 -- -- 71
2021-02-23 07:00:00 -2.4 4 Sudeste 10 Sur 0 -- -- 65
2021-02-23 06:00:00 -2.2 3 Sudeste 9 Sur 0 -- -- 62
2021-02-23 05:00:00 -2.6 0 Calma 8 Sur 0 -- -- 64
2021-02-23 04:00:00 -2.1 2 Sudoeste 10 Oeste 0 -- -- 64
2021-02-23 03:00:00 -1.6 0 Calma 6 Sudeste 0 -- -- 68
2021-02-23 02:00:00 -1.2 2 Oeste 5 Oeste 0 -- -- 62
2021-02-23 01:00:00 -0.3 0 Calma 10 Sur 0 -- -- 63
2021-02-23 00:00:00 0.8 10 Sur 14 Sudoeste 0 -- -- 52
2021-02-22 23:00:00 -0.3 3 Oeste 9 Sudoeste 0 -- -- 72
2021-02-22 22:00:00 0.6 2 Sur 10 Sudoeste 0 -- -- 64
2021-02-22 21:00:00 1.7 8 Sur 15 Sudoeste 0 -- -- 57
2021-02-22 20:00:00 2.3 6 Sur 10 Oeste 0 -- -- 53
2021-02-22 19:00:00 3.7 7 Oeste 23 Oeste 0 -- -- 61
2021-02-22 18:00:00 5.6 15 Oeste 26 Oeste 0 -- -- 55
2021-02-22 17:00:00 5.8 21 Oeste 29 Oeste 0 -- -- 52
2021-02-22 16:00:00 6.3 18 Oeste 26 Oeste 0 -- -- 59
2021-02-22 15:00:00 6.5 17 Oeste 23 Noroeste 0 -- -- 50
2021-02-22 14:00:00 5.9 5 Noroeste 17 Oeste 0 -- -- 65
2021-02-22 13:00:00 4.4 12 Oeste 24 Oeste 0 -- -- 68
2021-02-22 12:00:00 3.2 14 Noroeste 37 Oeste 0 -- -- 76
2021-02-22 11:00:00 1.6 30 Oeste 43 Oeste 0 -- -- 80
2021-02-22 10:00:00 0.9 30 Oeste 40 Oeste 0 -- -- 82
2021-02-22 09:00:00 0.5 25 Oeste 39 Oeste 0 -- -- 87
2021-02-22 08:00:00 0.2 22 Oeste 36 Oeste 0 -- -- 91
2021-02-22 07:00:00 0.6 21 Oeste 38 Oeste 0 -- -- 90
2021-02-22 06:00:00 0.8 24 Oeste 37 Sudoeste 0 -- -- 90
2021-02-22 05:00:00 1 23 Oeste 38 Oeste 0 -- -- 91
2021-02-22 04:00:00 1.3 26 Oeste 35 Oeste 0 -- -- 91
2021-02-22 03:00:00 1.5 23 Oeste 35 Oeste 0 -- -- 91
2021-02-22 02:00:00 1.6 22 Oeste 38 Oeste 0 -- -- 90
2021-02-22 01:00:00 1.6 20 Oeste 42 Oeste 0.8 -- -- 90
2021-02-22 00:00:00 1.6 24 Oeste 46 Oeste 0.8 -- -- 89
2021-02-21 23:00:00 1.6 26 Oeste 41 Oeste 1.2 -- -- 88
2021-02-21 22:00:00 1.2 24 Oeste 48 Oeste 1.8 -- -- 90
2021-02-21 21:00:00 1.3 23 Oeste 41 Sudoeste 1 -- -- 90
2021-02-21 20:00:00 1.2 10 Oeste 26 Oeste 1 -- -- 92
2021-02-21 19:00:00 1.4 16 Oeste 31 Oeste 1.8 -- -- 91
2021-02-21 18:00:00 1.8 15 Oeste 28 Oeste 3.2 -- -- 91
2021-02-21 17:00:00 2.2 18 Oeste 30 Oeste 3.8 -- -- 92
2021-02-21 16:00:00 2.6 23 Oeste 33 Oeste 1.4 -- -- 89
2021-02-21 15:00:00 6.4 7 Este 32 Este 1.2 -- -- 85
2021-02-21 14:00:00 6.4 18 Sudeste 40 Sudeste 1.4 -- -- 82
2021-02-21 13:00:00 6.4 22 Sudeste 42 Sudeste 1.8 -- -- 83
2021-02-21 12:00:00 6.4 30 Sudeste 59 Sudeste 0.8 -- -- 80
2021-02-21 11:00:00 6.5 27 Sudeste 58 Sudeste 1.6 -- -- 83
2021-02-21 10:00:00 6.5 39 Sudeste 63 Sudeste 1.4 -- -- 81
2021-02-21 09:00:00 6.4 27 Sudeste 54 Sudeste 1.6 -- -- 81
2021-02-21 08:00:00 5.8 24 Sudeste 63 Sudeste 2 -- -- 80
2021-02-21 07:00:00 7.1 48 Sur 89 Sur 0.4 -- -- 70
2021-02-21 06:00:00 10 55 Sudeste 87 Sudeste 0 -- -- 43
2021-02-21 05:00:00 10.6 44 Sudeste 79 Sudeste 0 -- -- 41
2021-02-21 04:00:00 10.2 30 Sudeste 55 Sudeste 0 -- -- 42
2021-02-21 03:00:00 10.3 30 Sudeste 56 Sudeste 0 -- -- 43
2021-02-21 02:00:00 10.3 21 Sudeste 46 Sudeste 0 -- -- 45
2021-02-21 01:00:00 10.4 30 Sudeste 74 Sur 0 -- -- 46
2021-02-21 00:00:00 10.2 49 Sudeste 80 Sudeste 0 -- -- 41
2021-02-20 23:00:00 9.9 37 Sudeste 75 Sudeste 0 -- -- 44
2021-02-20 22:00:00 9.7 47 Sudeste 78 Sur 0 -- -- 42
2021-02-20 21:00:00 9 22 Sudeste 54 Sudeste 0 -- -- 42
2021-02-20 20:00:00 8.8 20 Sudeste 49 Sur 0 -- -- 46
2021-02-20 19:00:00 9.4 29 Sudeste 57 Sur 0 -- -- 43
2021-02-20 18:00:00 9.9 36 Sudeste 66 Sudeste 0 -- -- 43
2021-02-20 17:00:00 10.4 39 Sudeste 67 Sudeste 0 -- -- 44
2021-02-20 16:00:00 11.5 36 Sur 70 Sur 0 -- -- 44
2021-02-20 15:00:00 11.2 39 Sudeste 60 Sudeste 0 -- -- 46
2021-02-20 14:00:00 11.1 39 Sudeste 65 Sudeste 0 -- -- 46
2021-02-20 13:00:00 9.6 38 Sur 79 Sudeste 0 -- -- 58
2021-02-20 12:00:00 8.9 64 Sur 101 Sur 0 -- -- 55
2021-02-20 11:00:00 8.5 73 Sur 107 Sur 0 -- -- 56
2021-02-20 10:00:00 8.1 69 Sur 98 Sudeste 0 -- -- 57
2021-02-20 09:00:00 7.6 56 Sudeste 92 Sudeste 0 -- -- 62
2021-02-20 08:00:00 8.8 48 Sudeste 78 Sudeste 0 -- -- 46
2021-02-20 07:00:00 9.7 33 Sur 59 Sur 0 -- -- 38
2021-02-20 06:00:00 10.9 23 Nordeste 85 Sur 0 -- -- 28
2021-02-20 05:00:00 10.8 40 Sur 89 Sur 0 -- -- 32
2021-02-20 04:00:00 10.9 45 Sur 76 Sur 0 -- -- 32
2021-02-20 03:00:00 10.4 42 Sur 81 Sudeste 0 -- -- 35
2021-02-20 02:00:00 9.5 39 Sur 68 Sur 0 -- -- 41
2021-02-20 01:00:00 8.7 37 Sur 77 Sudeste 0 -- -- 55
2021-02-20 00:00:00 8.9 41 Sur 74 Sur 0 -- -- 59
2021-02-19 23:00:00 10.1 36 Sudeste 68 Sur 0 -- -- 50
2021-02-19 22:00:00 10.3 43 Sudeste 66 Sudeste 0 -- -- 49
2021-02-19 21:00:00 11 45 Sudeste 80 Sudeste 0 -- -- 36
2021-02-19 20:00:00 10.9 16 Sur 53 Sur 0 -- -- 35
2021-02-19 19:00:00 10.9 16 Sudoeste 42 Sur 0 -- -- 32
2021-02-19 18:00:00 11.4 10 Sur 35 Sudoeste 0 -- -- 31
2021-02-19 17:00:00 12.1 18 Sur 57 Sur 0 -- -- 33
2021-02-19 16:00:00 13.6 27 Sur 53 Sur 0 -- -- 30
2021-02-19 15:00:00 13.9 29 Sur 50 Sur 0 -- -- 32
2021-02-19 14:00:00 13.8 9 Norte 35 Sudeste 0 -- -- 40
2021-02-19 13:00:00 12.9 15 Este 34 Nordeste 0 -- -- 42
2021-02-19 12:00:00 12.4 15 Este 33 Sudeste 0 -- -- 44
2021-02-19 11:00:00 11.1 14 Este 31 Este 0 -- -- 49
2021-02-19 10:00:00 8.1 7 Norte 19 Noroeste 0 -- -- 59
2021-02-19 09:00:00 4.6 3 Sudoeste 11 Noroeste 0 -- -- 66
2021-02-19 08:00:00 3.9 4 Oeste 15 Sur 0 -- -- 67
2021-02-19 07:00:00 3.5 5 Sudoeste 12 Sur 0 -- -- 72
2021-02-19 06:00:00 3.5 3 Sur 14 Sur 0 -- -- 69
2021-02-19 05:00:00 4 3 Sur 10 Sur 0 -- -- 67
2021-02-19 04:00:00 4.2 4 Sudoeste 13 Noroeste 0 -- -- 66
2021-02-19 03:00:00 4.7 5 Oeste 23 Sudeste 0 -- -- 65
2021-02-19 02:00:00 6 9 Nordeste 32 Sur 0 -- -- 62
2021-02-19 01:00:00 7.7 7 Nordeste 27 Sudoeste 0 -- -- 54
2021-02-19 00:00:00 8.1 10 Sudeste 27 Sudeste 0 -- -- 55
2021-02-18 23:00:00 8.3 9 Nordeste 27 Oeste 0 -- -- 55
2021-02-18 22:00:00 8 8 Sudeste 32 Sur 0 -- -- 56
2021-02-18 21:00:00 7.8 10 Sudeste 29 Este 0 -- -- 57
2021-02-18 20:00:00 8.2 8 Sur 20 Sur 0 -- -- 50
2021-02-18 19:00:00 9.3 10 Sudoeste 35 Sudoeste 0 -- -- 43
2021-02-18 18:00:00 10.9 13 Sudoeste 33 Sur 0 -- -- 39
2021-02-18 17:00:00 12.3 14 Sudoeste 37 Oeste 0 -- -- 38
2021-02-18 16:00:00 12.4 24 Oeste 48 Sudoeste 0 -- -- 40
2021-02-18 15:00:00 12.8 30 Sudoeste 50 Sudoeste 0 -- -- 38
2021-02-18 14:00:00 13 28 Sudoeste 50 Sudoeste 0 -- -- 39
2021-02-18 13:00:00 13.1 32 Sudoeste 62 Sudoeste 0 -- -- 37
2021-02-18 12:00:00 12.8 30 Sudoeste 63 Sudoeste 0 -- -- 36
2021-02-18 11:00:00 11 26 Sudoeste 53 Sur 0 -- -- 42
2021-02-18 10:00:00 10.1 31 Sur 59 Sur 0 -- -- 41
2021-02-18 09:00:00 9.7 31 Sur 54 Sur 0 -- -- 41
2021-02-18 08:00:00 9.4 22 Sur 37 Sur 0 -- -- 41
2021-02-18 07:00:00 8.6 20 Sudoeste 30 Sudoeste 0 -- -- 42
2021-02-18 06:00:00 8.8 20 Sudoeste 30 Sudoeste 0 -- -- 43
2021-02-18 05:00:00 8.8 18 Sudoeste 34 Sudoeste 0 -- -- 45
2021-02-18 04:00:00 9.1 19 Sudoeste 31 Sudoeste 0 -- -- 44
2021-02-18 03:00:00 8.4 3 Sur 19 Sudeste 0 -- -- 43
2021-02-18 02:00:00 8.6 4 Nordeste 21 Norte 0 -- -- 46
2021-02-18 01:00:00 8.1 5 Sudeste 18 Oeste 0 -- -- 53
2021-02-18 00:00:00 9.8 10 Oeste 36 Sur 0 -- -- 46
2021-02-17 23:00:00 10 15 Oeste 30 Sudoeste 0 -- -- 43
2021-02-17 22:00:00 10.6 16 Sudoeste 35 Sudoeste 0 -- -- 39
2021-02-17 21:00:00 11.4 20 Sudoeste 34 Sudoeste 0 -- -- 38
2021-02-17 20:00:00 11.9 19 Sudoeste 34 Sudoeste 0 -- -- 37
2021-02-17 19:00:00 12.5 19 Sudoeste 39 Sur 0 -- -- 36
2021-02-17 18:00:00 13.9 17 Sudoeste 37 Sudoeste 0 -- -- 35
2021-02-17 17:00:00 15.3 12 Sudoeste 41 Sur 0 -- -- 35
2021-02-17 16:00:00 15.2 15 Sudoeste 41 Oeste 0 -- -- 34
2021-02-17 15:00:00 13.8 13 Oeste 31 Oeste 0 -- -- 46
2021-02-17 14:00:00 12.8 20 Oeste 29 Oeste 0 -- -- 58
2021-02-17 13:00:00 11.1 3 Nordeste 6 Este 0 -- -- 67
2021-02-17 12:00:00 10.1 3 Nordeste 7 Este 0 -- -- 69
2021-02-17 11:00:00 8.8 0 Calma 6 Norte 0 -- -- 79
2021-02-17 10:00:00 7.2 0 Calma 8 Sudoeste 0 -- -- 87
2021-02-17 09:00:00 5.4 4 Oeste 9 Oeste 0 -- -- 88
2021-02-17 08:00:00 5.5 4 Sur 12 Sur 0 -- -- 84
2021-02-17 07:00:00 5.2 5 Oeste 9 Sur 0 -- -- 86
2021-02-17 06:00:00 4.8 5 Oeste 12 Sur 0 -- -- 87
2021-02-17 05:00:00 5.4 4 Sur 7 Sur 0 -- -- 86
2021-02-17 04:00:00 5.5 3 Sudoeste 10 Oeste 0 -- -- 84
2021-02-17 03:00:00 6.7 2 Sur 6 Sur 0 -- -- 81
2021-02-17 02:00:00 7.2 4 Sudoeste 8 Nordeste 0 -- -- 80
2021-02-17 01:00:00 7.5 3 Oeste 9 Oeste 0 -- -- 78
2021-02-17 00:00:00 7.7 4 Nordeste 9 Sur 0 -- -- 74
2021-02-16 23:00:00 7.4 0 Calma 9 Sudoeste 0 -- -- 77
2021-02-16 22:00:00 7.4 4 Sur 10 Noroeste 0 -- -- 78
2021-02-16 21:00:00 7.5 4 Oeste 25 Oeste 0 -- -- 78
2021-02-16 20:00:00 8.3 7 Oeste 15 Oeste 0 -- -- 75
2021-02-16 19:00:00 8.7 6 Noroeste 23 Sudoeste 0 -- -- 74
2021-02-16 18:00:00 10.5 13 Oeste 29 Sudoeste 0 -- -- 64
2021-02-16 17:00:00 12.1 25 Oeste 41 Oeste 0 -- -- 47
2021-02-16 16:00:00 13.9 20 Oeste 41 Sudoeste 0 -- -- 42
2021-02-16 15:00:00 15 20 Oeste 41 Oeste 0 -- -- 41
2021-02-16 14:00:00 16 22 Sudoeste 53 Sudoeste 0 -- -- 38
2021-02-16 13:00:00 15.5 20 Oeste 51 Sudoeste 0 -- -- 38
2021-02-16 12:00:00 14.6 14 Sudoeste 34 Sudoeste 0 -- -- 42
2021-02-16 11:00:00 11.6 14 Oeste 38 Sudoeste 0 -- -- 53
2021-02-16 10:00:00 8.1 15 Sudoeste 34 Sudoeste 0 -- -- 63
2021-02-16 09:00:00 7.4 11 Oeste 33 Sudoeste 0 -- -- 67
2021-02-16 08:00:00 10.3 15 Sudoeste 35 Sudoeste 0 -- -- 48
2021-02-16 07:00:00 9.5 19 Sur 42 Sur 0 -- -- 48
2021-02-16 06:00:00 9.3 24 Sur 39 Sudoeste 0 -- -- 57
2021-02-16 05:00:00 9.2 22 Sur 50 Sur 0 -- -- 52
2021-02-16 04:00:00 9 27 Sur 42 Sur 0 -- -- 58
2021-02-16 03:00:00 8.5 30 Sur 46 Sur 0 -- -- 68
2021-02-16 02:00:00 9.4 15 Sur 34 Sudoeste 0 -- -- 53
2021-02-16 01:00:00 8.1 10 Sudoeste 33 Sudoeste 0 -- -- 61
2021-02-16 00:00:00 9.1 5 Este 47 Sudeste 0 -- -- 57
2021-02-15 23:00:00 9.5 12 Sudeste 37 Sudeste 0 -- -- 57
2021-02-15 22:00:00 9.6 7 Sudeste 49 Sudeste 0 -- -- 55
2021-02-15 21:00:00 10 29 Sudeste 48 Sudeste 0 -- -- 57
2021-02-15 20:00:00 10.3 10 Sudeste 52 Sur 0 -- -- 50
2021-02-15 19:00:00 10.5 25 Sudeste 50 Sudeste 0 -- -- 51
2021-02-15 18:00:00 11.3 17 Sur 47 Sur 0 -- -- 53
2021-02-15 17:00:00 13 22 Sur 58 Sur 0 -- -- 45
2021-02-15 16:00:00 13.1 28 Sur 62 Sur 0 -- -- 49
2021-02-15 15:00:00 13.3 35 Sur 58 Sur 0 -- -- 51
2021-02-15 14:00:00 13.5 29 Sur 51 Sur 0 -- -- 48
2021-02-15 13:00:00 11.2 3 Oeste 11 Noroeste 0 -- -- 68
2021-02-15 12:00:00 7.5 3 Noroeste 9 Norte 0 -- -- 82
2021-02-15 11:00:00 6.3 3 Norte 7 Nordeste 0 -- -- 81
2021-02-15 10:00:00 5.2 0 Calma 4 Oeste 0 -- -- 87
2021-02-15 09:00:00 2 2 Sur 9 Sur 0 -- -- 92
2021-02-15 08:00:00 2.4 5 Sur 7 Sur 0 -- -- 92
2021-02-15 07:00:00 2.7 6 Sur 8 Sur 0 -- -- 90
2021-02-15 06:00:00 2.3 0 Calma 5 Sudoeste 0 -- -- 89
2021-02-15 05:00:00 3.3 4 Sudoeste 6 Sur 0 -- -- 89
2021-02-15 04:00:00 3.2 3 Sudoeste 6 Sur 0 -- -- 88
2021-02-15 03:00:00 3.9 4 Oeste 6 Oeste 0 -- -- 87
2021-02-15 02:00:00 4.1 0 Calma 9 Sur 0 -- -- 86
2021-02-15 01:00:00 4.9 3 Sudoeste 9 Oeste 0 -- -- 85
2021-02-15 00:00:00 5.5 6 Oeste 10 Sudoeste 0 -- -- 84
2021-02-14 23:00:00 5.9 3 Sudoeste 7 Noroeste 0 -- -- 85
2021-02-14 22:00:00 7.3 3 Noroeste 7 Oeste 0 -- -- 79
2021-02-14 21:00:00 7.5 4 Oeste 10 Oeste 0 -- -- 78
2021-02-14 20:00:00 8.4 7 Oeste 13 Noroeste 0 -- -- 77
2021-02-14 19:00:00 10.5 6 Oeste 14 Oeste 0 -- -- 71
2021-02-14 18:00:00 13.5 3 Noroeste 21 Sur 0 -- -- 59
2021-02-14 17:00:00 14.3 10 Sur 17 Sur 0 -- -- 55
2021-02-14 16:00:00 15.1 0 Calma 8 Norte 0 -- -- 51
2021-02-14 15:00:00 13.2 4 Norte 10 Este 0 -- -- 51
2021-02-14 14:00:00 12 4 Este 9 Sudeste 0 -- -- 55
2021-02-14 13:00:00 10.3 7 Norte 14 Norte 0 -- -- 63
2021-02-14 12:00:00 9.8 6 Nordeste 9 Este 0 -- -- 52
2021-02-14 11:00:00 7.6 3 Nordeste 5 Nordeste 0 -- -- 71
2021-02-14 10:00:00 5.1 0 Calma 6 Oeste 0 -- -- 77
2021-02-14 09:00:00 2.3 0 Calma 8 Sur 0 -- -- 82
2021-02-14 08:00:00 0 0 Calma 6 Sur 0 -- -- 81
2021-02-14 07:00:00 1.5 0 Calma 5 Oeste 0 -- -- 75
2021-02-14 06:00:00 2.6 4 Sur 9 Sur 0 -- -- 72
2021-02-14 05:00:00 2.1 5 Oeste 8 Oeste 0 -- -- 81
2021-02-14 04:00:00 2.2 5 Sudeste 13 Sur 0 -- -- 79
2021-02-14 03:00:00 3.3 0 Calma 11 Sur 0 -- -- 85
2021-02-14 02:00:00 3.7 8 Sur 11 Sudoeste 0 -- -- 83
2021-02-14 01:00:00 3.4 7 Oeste 11 Oeste 0 -- -- 89
2021-02-14 00:00:00 4.4 3 Sudeste 11 Sur 0 -- -- 84
2021-02-13 23:00:00 5.6 10 Sur 13 Sur 0 -- -- 83
2021-02-13 22:00:00 6.4 5 Sur 15 Oeste 0 -- -- 84
2021-02-13 21:00:00 7.5 11 Oeste 16 Oeste 0 -- -- 84
2021-02-13 20:00:00 7.7 8 Oeste 14 Oeste 0 -- -- 83
2021-02-13 19:00:00 8.6 12 Noroeste 24 Oeste 0 -- -- 78
2021-02-13 18:00:00 10.2 15 Noroeste 24 Noroeste 0 -- -- 71
2021-02-13 17:00:00 11.3 14 Noroeste 28 Noroeste 0 -- -- 66
2021-02-13 16:00:00 11.7 9 Oeste 24 Oeste 0 -- -- 63
2021-02-13 15:00:00 10.7 16 Sudoeste 27 Oeste 0 -- -- 61
2021-02-13 14:00:00 9.5 14 Oeste 34 Oeste 0 -- -- 55
2021-02-13 13:00:00 9.5 17 Oeste 33 Noroeste 0 -- -- 50
2021-02-13 08:00:00 -- -- -- -- -- -- -- -- --
2021-02-13 07:00:00 -- -- -- -- -- -- -- -- --
2021-02-13 06:00:00 3.7 6 Oeste 12 Sudoeste 0 -- -- 49
2021-02-13 05:00:00 2.2 0 Calma 9 Sur 0 -- -- 73
2021-02-13 04:00:00 2.8 7 Sur 11 Sur 0 -- -- 72
2021-02-13 03:00:00 2.7 6 Sur 12 Sudoeste 0 -- -- 72
2021-02-13 02:00:00 3 5 Sur 10 Sur 0 -- -- 80
2021-02-13 01:00:00 3.4 7 Oeste 12 Oeste 0 -- -- 84
2021-02-13 00:00:00 4 6 Oeste 13 Oeste 0 -- -- 86
2021-02-12 23:00:00 3.6 5 Oeste 13 Oeste 0 -- -- 88
2021-02-12 22:00:00 4.3 7 Oeste 13 Noroeste 0 -- -- 87
2021-02-12 21:00:00 4.2 4 Oeste 9 Oeste 0 -- -- 87
2021-02-12 20:00:00 5.2 0 Calma 13 Oeste 0 -- -- 82
2021-02-12 19:00:00 6.4 9 Oeste 27 Oeste 0 -- -- 78
2021-02-12 18:00:00 7.3 18 Oeste 33 Oeste 0 -- -- 75
2021-02-12 17:00:00 7.9 21 Oeste 40 Oeste 0 -- -- 71
2021-02-12 16:00:00 8.5 22 Oeste 38 Oeste 0 -- -- 71
2021-02-12 15:00:00 7.8 22 Oeste 39 Oeste 0 -- -- 73
2021-02-12 14:00:00 7.5 21 Oeste 47 Oeste 0 -- -- 76
2021-02-12 13:00:00 7.2 30 Oeste 46 Oeste 0 -- -- 78
2021-02-12 12:00:00 6.4 31 Oeste 48 Oeste 0 -- -- 81
2021-02-12 11:00:00 6 23 Oeste 44 Oeste 0 -- -- 82
2021-02-12 10:00:00 5.9 23 Oeste 37 Oeste 0 -- -- 82
2021-02-12 09:00:00 5.3 27 Oeste 42 Oeste 0 -- -- 86
2021-02-12 08:00:00 5.2 24 Oeste 46 Oeste 0 -- -- 85
2021-02-12 07:00:00 5.3 28 Oeste 67 Oeste 2.6 -- -- 87
2021-02-12 06:00:00 7.1 32 Oeste 54 Oeste 0.2 -- -- 86
2021-02-12 05:00:00 8 19 Oeste 48 Sudoeste 1.8 -- -- 87
2021-02-12 04:00:00 9.2 33 Sudoeste 60 Sudoeste 3 -- -- 75
2021-02-12 03:00:00 8.6 13 Oeste 41 Sur 0.6 -- -- 85
2021-02-12 02:00:00 9.7 13 Sur 36 Sudoeste 0 -- -- 72
2021-02-12 01:00:00 8.8 10 Norte 34 Sudoeste 0 -- -- 74
2021-02-12 00:00:00 7.9 8 Noroeste 22 Sudoeste 0 -- -- 79
2021-02-11 23:00:00 7.7 9 Noroeste 16 Noroeste 0 -- -- 80
2021-02-11 22:00:00 7.7 4 Sudoeste 19 Sudeste 0 -- -- 82
2021-02-11 21:00:00 9.1 6 Sudeste 19 Este 0 -- -- 75
2021-02-11 20:00:00 8.8 5 Noroeste 25 Sudeste 0 -- -- 84
2021-02-11 19:00:00 10.3 16 Sudeste 29 Sudeste 0 -- -- 81
2021-02-11 18:00:00 11.5 15 Este 24 Este 0 -- -- 76
2021-02-11 17:00:00 12.7 12 Oeste 27 Oeste 0 -- -- 72
2021-02-11 16:00:00 13.1 18 Noroeste 24 Noroeste 0 -- -- 72
2021-02-11 15:00:00 12.2 7 Norte 10 Noroeste 0 -- -- 72
2021-02-11 14:00:00 11.9 4 Este 12 Este 0 -- -- 72
2021-02-11 13:00:00 11 8 Nordeste 12 Nordeste 0 -- -- 75
2021-02-11 12:00:00 9.3 6 Este 10 Sudeste 0 -- -- 83
2021-02-11 11:00:00 8.3 4 Nordeste 10 Nordeste 0 -- -- 85
2021-02-11 10:00:00 8.4 5 Nordeste 13 Este 0 -- -- 83
2021-02-11 09:00:00 7.5 6 Sudeste 17 Noroeste 0 -- -- 88
2021-02-11 08:00:00 7.4 10 Norte 20 Noroeste 0 -- -- 89
2021-02-11 07:00:00 7.4 10 Norte 18 Norte 0 -- -- 89
2021-02-11 06:00:00 7.8 8 Norte 18 Norte 0 -- -- 86
2021-02-11 05:00:00 7.8 4 Norte 28 Oeste 0 -- -- 85
2021-02-11 04:00:00 7.5 9 Noroeste 42 Oeste 0 -- -- 85
2021-02-11 03:00:00 7.9 12 Oeste 30 Oeste 0 -- -- 82
2021-02-11 02:00:00 7.4 8 Oeste 34 Sudoeste 0 -- -- 78
2021-02-11 01:00:00 7.3 7 Noroeste 32 Oeste 0 -- -- 68
2021-02-11 00:00:00 7.1 6 Noroeste 35 Sudoeste 0 -- -- 64
2021-02-10 23:00:00 8.7 18 Oeste 41 Sudoeste 0 -- -- 66
2021-02-10 22:00:00 8.9 20 Oeste 40 Sudoeste 0 -- -- 47
2021-02-10 21:00:00 6.8 5 Nordeste 15 Nordeste 0 -- -- 48
2021-02-10 20:00:00 6.3 4 Nordeste 29 Oeste 0 -- -- 54
2021-02-10 19:00:00 7.4 18 Oeste 44 Sudoeste 0 -- -- 42
2021-02-10 18:00:00 8.2 22 Oeste 46 Sudoeste 0 -- -- 33
2021-02-10 17:00:00 9.2 24 Oeste 45 Oeste 0 -- -- 36
2021-02-10 16:00:00 9.5 20 Oeste 36 Oeste 0 -- -- 43
2021-02-10 15:00:00 9.1 20 Oeste 42 Oeste 0 -- -- 40
2021-02-10 14:00:00 9 17 Oeste 35 Oeste 0 -- -- 44
2021-02-10 13:00:00 8.2 9 Oeste 45 Oeste 0 -- -- 46
2021-02-10 12:00:00 7 21 Oeste 58 Oeste 0 -- -- 48
2021-02-10 11:00:00 5.2 37 Oeste 68 Oeste 0 -- -- 71
2021-02-10 10:00:00 4 49 Oeste 73 Oeste 0 -- -- 80
2021-02-10 09:00:00 3.7 38 Oeste 69 Sudoeste 0 -- -- 87
2021-02-10 08:00:00 3.5 41 Oeste 69 Sudoeste 1 -- -- 85
2021-02-10 07:00:00 3.5 31 Oeste 62 Sudoeste 0.6 -- -- 90
2021-02-10 06:00:00 3.6 30 Oeste 60 Oeste 0.4 -- -- 91
2021-02-10 05:00:00 3.7 29 Oeste 68 Sudoeste 1.8 -- -- 89
2021-02-10 04:00:00 3.9 18 Oeste 69 Sudoeste 3.6 -- -- 87
2021-02-10 03:00:00 5.1 39 Sudoeste 79 Sudoeste 1 -- -- 80
2021-02-10 02:00:00 5.1 25 Sudoeste 66 Sudoeste 0.2 -- -- 80
2021-02-10 01:00:00 5 34 Sudoeste 54 Sur 0.8 -- -- 79
2021-02-10 00:00:00 4.1 26 Sudoeste 57 Sudoeste 1.2 -- -- 84
2021-02-09 23:00:00 4.1 31 Sudoeste 69 Sudoeste 1.2 -- -- 82
2021-02-09 22:00:00 4.2 39 Sudoeste 78 Sudoeste 0.4 -- -- 81
2021-02-09 21:00:00 5 42 Sudoeste 71 Sudoeste 0.2 -- -- 75
2021-02-09 20:00:00 4.5 19 Oeste 66 Sudoeste 0.8 -- -- 87
2021-02-09 19:00:00 5.4 43 Sudoeste 78 Sur 0.8 -- -- 77
2021-02-09 18:00:00 5.8 49 Sudoeste 81 Sudoeste 0.8 -- -- 67
2021-02-09 17:00:00 4.8 18 Sudoeste 50 Sudoeste 0.6 -- -- 85
2021-02-09 16:00:00 5.5 26 Sudoeste 55 Sudoeste 1.8 -- -- 72
2021-02-09 15:00:00 1.4 15 Oeste 40 Sudoeste 3.4 -- -- 93
2021-02-09 14:00:00 2 28 Oeste 62 Sudoeste 5.4 -- -- 88
2021-02-09 13:00:00 6.2 31 Sudoeste 50 Sur 4.2 -- -- 79
2021-02-09 12:00:00 5.8 27 Sur 47 Sur 3.4 -- -- 81
2021-02-09 11:00:00 5.8 26 Sur 49 Sudoeste 2.2 -- -- 80
2021-02-09 10:00:00 5.6 26 Sur 51 Sudoeste 1.4 -- -- 82
2021-02-09 09:00:00 6.4 37 Sur 60 Sur 0.2 -- -- 75
2021-02-09 08:00:00 6.3 31 Sudoeste 44 Sudoeste 0.2 -- -- 74
2021-02-09 07:00:00 6.4 22 Sudoeste 40 Sudoeste 0 -- -- 74
2021-02-09 06:00:00 6.8 27 Sudoeste 49 Sudoeste 0 -- -- 68
2021-02-09 05:00:00 6.6 27 Sudoeste 68 Sudoeste 0 -- -- 67
2021-02-09 04:00:00 6.7 27 Sudoeste 47 Sudoeste 0 -- -- 68
2021-02-09 03:00:00 5.4 11 Sur 59 Oeste 0 -- -- 74
2021-02-09 02:00:00 4.3 36 Sudoeste 62 Oeste 0.2 -- -- 67
2021-02-09 01:00:00 3.8 18 Oeste 45 Sudoeste 0 -- -- 82
2021-02-09 00:00:00 4.2 8 Oeste 28 Oeste 0 -- -- 82
2021-02-08 23:00:00 4.2 10 Oeste 51 Oeste 0 -- -- 83
2021-02-08 22:00:00 4.1 22 Sudoeste 53 Sudoeste 0 -- -- 83
2021-02-08 21:00:00 3.8 26 Oeste 59 Oeste 0.2 -- -- 87
2021-02-08 20:00:00 4.1 34 Oeste 58 Oeste 0.6 -- -- 87
2021-02-08 19:00:00 4.1 22 Oeste 60 Oeste 0.8 -- -- 88
2021-02-08 18:00:00 4.3 29 Oeste 64 Oeste 0.8 -- -- 88
2021-02-08 17:00:00 4.7 33 Sudoeste 63 Sudoeste 0.4 -- -- 84
2021-02-08 16:00:00 4.9 31 Sudoeste 60 Sudoeste 0.4 -- -- 81
2021-02-08 15:00:00 4.9 35 Sudoeste 69 Sudoeste 0.2 -- -- 82
2021-02-08 14:00:00 5.4 48 Sudoeste 70 Sudoeste 0.2 -- -- 77
2021-02-08 13:00:00 4.9 36 Oeste 62 Oeste 0.2 -- -- 82
2021-02-08 12:00:00 4.4 39 Sudoeste 66 Sudoeste 0 -- -- 85
2021-02-08 11:00:00 4.7 37 Oeste 65 Sudoeste 0.2 -- -- 81
2021-02-08 10:00:00 4.4 39 Sudoeste 56 Sudoeste 0 -- -- 82
2021-02-08 09:00:00 3.6 29 Sudoeste 49 Sudoeste 0.2 -- -- 85
2021-02-08 08:00:00 3.6 29 Oeste 62 Sudoeste 0.2 -- -- 82
2021-02-08 07:00:00 3.4 33 Oeste 57 Oeste 0.2 -- -- 85
2021-02-08 06:00:00 4.2 23 Oeste 50 Oeste 0.6 -- -- 88
2021-02-08 05:00:00 3.9 15 Oeste 49 Sudoeste 1.2 -- -- 89
2021-02-08 04:00:00 6.1 37 Sudoeste 62 Sudoeste 4.2 -- -- 77
2021-02-08 03:00:00 6.1 21 Sur 63 Sudoeste 2.2 -- -- 77
2021-02-08 02:00:00 6.3 27 Sur 44 Sudoeste 1.2 -- -- 76
2021-02-08 01:00:00 7 17 Sudoeste 44 Sudoeste 0.2 -- -- 75
2021-02-08 00:00:00 7.6 20 Sudoeste 48 Sur 0 -- -- 70
2021-02-07 23:00:00 7.3 22 Sudoeste 47 Sudoeste 0 -- -- 73
2021-02-07 22:00:00 7.1 22 Sudoeste 48 Sudoeste 0 -- -- 75
2021-02-07 21:00:00 6.2 16 Sudoeste 53 Oeste 0 -- -- 81
2021-02-07 20:00:00 5.7 28 Sudoeste 58 Sudoeste 0 -- -- 85
2021-02-07 19:00:00 6.1 35 Sudoeste 55 Sudoeste 0.2 -- -- 82
2021-02-07 18:00:00 3.8 18 Oeste 35 Sudoeste 0.4 -- -- 90
2021-02-07 17:00:00 4.4 21 Oeste 36 Oeste 0.2 -- -- 83
2021-02-07 16:00:00 5.5 25 Oeste 50 Oeste 0 -- -- 71
2021-02-07 15:00:00 6.7 28 Oeste 43 Oeste 0 -- -- 50
2021-02-07 14:00:00 7.7 16 Oeste 41 Oeste 0 -- -- 48
2021-02-07 13:00:00 6.5 21 Noroeste 35 Sudoeste 0 -- -- 66
2021-02-07 12:00:00 5.6 13 Noroeste 23 Oeste 0 -- -- 64
2021-02-07 11:00:00 4.5 15 Oeste 24 Oeste 0 -- -- 76
2021-02-07 10:00:00 3.2 0 Calma 4 Nordeste 0 -- -- 85
2021-02-07 09:00:00 0.8 0 Calma 4 Sur 0 -- -- 93
2021-02-07 08:00:00 1 0 Calma 4 Nordeste 0 -- -- 93
2021-02-07 07:00:00 1.3 0 Calma 4 Sudeste 0 -- -- 93
2021-02-07 06:00:00 1.1 2 Oeste 6 Oeste 0 -- -- 91
2021-02-07 05:00:00 1.6 0 Calma 6 Sudeste 0 -- -- 91
2021-02-07 04:00:00 2.1 3 Sudeste 5 Este 0 -- -- 91
2021-02-07 03:00:00 2.3 3 Este 7 Norte 0 -- -- 88
2021-02-07 02:00:00 2.2 2 Este 5 Nordeste 0 -- -- 92
2021-02-07 01:00:00 2.5 0 Calma 6 Noroeste 0 -- -- 90
2021-02-07 00:00:00 2.8 5 Nordeste 10 Nordeste 0 -- -- 89
2021-02-06 23:00:00 3 0 Calma 9 Nordeste 0 -- -- 92
2021-02-06 22:00:00 3.2 4 Norte 10 Nordeste 0 -- -- 91
2021-02-06 21:00:00 3.1 7 Nordeste 17 Nordeste 0 -- -- 91
2021-02-06 20:00:00 3.4 8 Nordeste 21 Nordeste 0 -- -- 94
2021-02-06 19:00:00 4.1 10 Nordeste 23 Nordeste 0.2 -- -- 94
2021-02-06 18:00:00 4.9 6 Norte 22 Nordeste 2.8 -- -- 92
2021-02-06 17:00:00 5.4 7 Noroeste 10 Noroeste 0.8 -- -- 89
2021-02-06 16:00:00 5.7 8 Sur 19 Norte 2.4 -- -- 85
2021-02-06 15:00:00 6.3 12 Noroeste 22 Noroeste 0.4 -- -- 89
2021-02-06 14:00:00 9.1 7 Oeste 19 Oeste 0 -- -- 72
2021-02-06 13:00:00 8 0 Calma 5 Nordeste 0 -- -- 73
2021-02-06 12:00:00 6.9 3 Este 8 Este 0 -- -- 77
2021-02-06 11:00:00 6.5 0 Calma 5 Norte 0 -- -- 83
2021-02-06 10:00:00 5.2 0 Calma 4 Oeste 0 -- -- 89
2021-02-06 09:00:00 4.3 3 Noroeste 9 Oeste 0 -- -- 91
2021-02-06 08:00:00 4.4 5 Sudoeste 12 Oeste 0 -- -- 91
2021-02-06 07:00:00 4.4 6 Oeste 13 Oeste 0 -- -- 90
2021-02-06 06:00:00 4.4 4 Norte 8 Nordeste 0 -- -- 91
2021-02-06 05:00:00 4.5 5 Oeste 21 Nordeste 0 -- -- 91
2021-02-06 04:00:00 4.4 11 Nordeste 27 Nordeste 0.4 -- -- 88
2021-02-06 03:00:00 4.8 12 Nordeste 19 Nordeste 0.4 -- -- 89
2021-02-06 02:00:00 5.1 3 Sur 24 Sudeste 0.2 -- -- 87
2021-02-06 01:00:00 5.1 19 Este 26 Este 0 -- -- 89
2021-02-06 00:00:00 5.4 8 Este 25 Sur 0.4 -- -- 82
2021-02-05 23:00:00 6.1 7 Sur 26 Sudoeste 0.4 -- -- 84
2021-02-05 22:00:00 7.1 10 Sudeste 17 Sudeste 0.8 -- -- 87
2021-02-05 21:00:00 7.4 14 Este 44 Este 1.2 -- -- 79
2021-02-05 20:00:00 8.2 7 Este 24 Sudeste 0 -- -- 83
2021-02-05 19:00:00 7.8 9 Este 21 Sudeste 0 -- -- 84
2021-02-05 18:00:00 8.8 10 Este 19 Sudeste 0 -- -- 80
2021-02-05 17:00:00 9 14 Este 23 Este 0 -- -- 86
2021-02-05 16:00:00 9 10 Este 22 Este 0 -- -- 83
2021-02-05 15:00:00 8.9 11 Este 18 Este 0 -- -- 82
2021-02-05 14:00:00 8.7 9 Este 21 Este 0 -- -- 83
2021-02-05 13:00:00 8.2 12 Este 22 Este 0 -- -- 84
2021-02-05 12:00:00 8.9 9 Este 18 Este 0 -- -- 81
2021-02-05 11:00:00 7.3 4 Sur 8 Noroeste 0 -- -- 92
2021-02-05 10:00:00 6.5 10 Oeste 14 Oeste 0.2 -- -- 94
2021-02-05 09:00:00 5.6 5 Oeste 8 Oeste 0.2 -- -- 94
2021-02-05 08:00:00 6 3 Noroeste 9 Sur 0 -- -- 90
2021-02-05 07:00:00 6.7 4 Sur 11 Sur 0 -- -- 88
2021-02-05 06:00:00 6.9 5 Nordeste 26 Sudeste 0 -- -- 87
2021-02-05 05:00:00 8 15 Sur 40 Sur 0.4 -- -- 82
2021-02-05 04:00:00 8 15 Sur 49 Sudeste 2 -- -- 83
2021-02-05 03:00:00 8.3 23 Sudeste 41 Sudeste 0.2 -- -- 79
2021-02-05 02:00:00 7.9 18 Sudeste 32 Sudeste 0 -- -- 81
2021-02-05 01:00:00 7.7 18 Sudeste 34 Sudeste 0 -- -- 83
2021-02-05 00:00:00 8.1 15 Sudeste 34 Sudeste 0 -- -- 80
2021-02-04 23:00:00 6.6 7 Sudeste 26 Sudeste 0 -- -- 82
2021-02-04 22:00:00 3.8 4 Oeste 12 Nordeste 0 -- -- 96
2021-02-04 21:00:00 4 7 Nordeste 17 Este 0 -- -- 95
2021-02-04 20:00:00 4.2 4 Este 9 Este 0.2 -- -- 95
2021-02-04 19:00:00 4.3 2 Sudeste 4 Oeste 0.4 -- -- 93
2021-02-04 18:00:00 4.4 3 Noroeste 12 Oeste 0.6 -- -- 92
2021-02-04 17:00:00 4.6 8 Oeste 19 Oeste 0.2 -- -- 90
2021-02-04 16:00:00 5.2 14 Oeste 32 Oeste 0 -- -- 88
2021-02-04 15:00:00 7.2 6 Nordeste 23 Sudoeste 0 -- -- 84
2021-02-04 14:00:00 6.9 17 Oeste 26 Oeste 0 -- -- 86
2021-02-04 13:00:00 10.8 12 Sur 34 Sur 0 -- -- 76
2021-02-04 12:00:00 10 15 Sudeste 32 Sudeste 0 -- -- 74
2021-02-04 11:00:00 8.2 14 Este 23 Este 0 -- -- 88
2021-02-04 10:00:00 6.8 5 Nordeste 12 Nordeste 0.2 -- -- 94
2021-02-04 09:00:00 5.4 2 Nordeste 5 Oeste 0 -- -- 95
2021-02-04 08:00:00 5.5 6 Oeste 9 Oeste 0 -- -- 95
2021-02-04 07:00:00 5.6 3 Oeste 9 Oeste 0 -- -- 94
2021-02-04 06:00:00 5.8 3 Noroeste 5 Oeste 0 -- -- 93
2021-02-04 05:00:00 5.8 5 Oeste 8 Noroeste 0 -- -- 93
2021-02-04 04:00:00 5.7 5 Sur 8 Sur 0 -- -- 92
2021-02-04 03:00:00 5.8 2 Este 7 Este 0 -- -- 91
2021-02-04 02:00:00 5.9 3 Sudeste 16 Este 0 -- -- 92
2021-02-04 01:00:00 6.2 6 Sudeste 15 Este 0 -- -- 92
2021-02-04 00:00:00 6.6 9 Oeste 23 Oeste 0.2 -- -- 92
2021-02-03 23:00:00 6.5 14 Oeste 23 Oeste 0.2 -- -- 93
2021-02-03 22:00:00 7 16 Oeste 28 Oeste 0.2 -- -- 92
2021-02-03 21:00:00 7.1 13 Oeste 22 Oeste 0.4 -- -- 92
2021-02-03 20:00:00 7.9 14 Oeste 23 Oeste 0.2 -- -- 89
2021-02-03 19:00:00 8.6 15 Sur 32 Sur 0 -- -- 81
2021-02-03 18:00:00 9.3 22 Sudeste 40 Sur 0 -- -- 77
2021-02-03 17:00:00 10.6 18 Sur 34 Sur 0 -- -- 72
2021-02-03 16:00:00 11.4 11 Sudoeste 32 Sudeste 0 -- -- 70
2021-02-03 15:00:00 10.7 19 Sudeste 35 Sudeste 0 -- -- 71
2021-02-03 14:00:00 11.4 16 Sur 32 Sudeste 0 -- -- 68
2021-02-03 13:00:00 10.3 19 Sur 40 Sudeste 0 -- -- 72
2021-02-03 12:00:00 9.6 24 Sudeste 40 Sudeste 0 -- -- 74
2021-02-03 11:00:00 9.1 14 Sur 25 Sur 0 -- -- 75
2021-02-03 10:00:00 8.7 13 Sur 28 Sur 0 -- -- 76
2021-02-03 09:00:00 7.3 14 Sur 32 Sur 0 -- -- 79
2021-02-03 08:00:00 7.4 15 Sur 43 Sudeste 0 -- -- 77
2021-02-03 07:00:00 7.1 22 Sur 50 Sur 0 -- -- 78
2021-02-03 06:00:00 7.5 23 Sudoeste 44 Sudoeste 0 -- -- 76
2021-02-03 05:00:00 7.6 27 Sudoeste 45 Sudoeste 0 -- -- 74
2021-02-03 04:00:00 9.5 26 Sur 54 Sur 0 -- -- 67
2021-02-03 03:00:00 9.5 18 Sur 41 Sur 0 -- -- 69
2021-02-03 02:00:00 4.3 4 Este 13 Este 0 -- -- 85
2021-02-03 01:00:00 4 3 Sudeste 12 Sur 0 -- -- 85
2021-02-03 00:00:00 4.3 6 Este 14 Sur 0 -- -- 86
2021-02-02 23:00:00 4.4 6 Oeste 17 Nordeste 0 -- -- 87
2021-02-02 22:00:00 5 11 Este 26 Este 0 -- -- 86
2021-02-02 21:00:00 5.6 12 Este 27 Este 0 -- -- 87
2021-02-02 20:00:00 6.8 11 Este 22 Este 0 -- -- 85
2021-02-02 19:00:00 8.2 8 Oeste 15 Noroeste 0 -- -- 82
2021-02-02 18:00:00 11 8 Oeste 18 Oeste 0 -- -- 74
2021-02-02 17:00:00 13 12 Oeste 29 Oeste 0 -- -- 68
2021-02-02 16:00:00 13.2 22 Oeste 30 Oeste 0 -- -- 64
2021-02-02 15:00:00 13.8 4 Nordeste 13 Nordeste 0 -- -- 61
2021-02-02 14:00:00 13.2 5 Este 13 Este 0 -- -- 63
2021-02-02 13:00:00 11.2 2 Noroeste 10 Nordeste 0 -- -- 70
2021-02-02 12:00:00 10.2 4 Norte 8 Norte 0 -- -- 74
2021-02-02 11:00:00 8.8 3 Noroeste 6 Nordeste 0 -- -- 80
2021-02-02 10:00:00 6.3 3 Oeste 6 Noroeste 0 -- -- 90
2021-02-02 09:00:00 5.3 3 Sudeste 16 Sudeste 0 -- -- 90
2021-02-02 08:00:00 6.2 12 Este 25 Este 0 -- -- 87
2021-02-02 07:00:00 6.2 9 Este 23 Este 0 -- -- 87
2021-02-02 06:00:00 6.7 3 Sudeste 31 Oeste 0 -- -- 87
2021-02-02 05:00:00 8.2 22 Noroeste 42 Oeste 0 -- -- 81
2021-02-02 04:00:00 8.4 22 Oeste 42 Oeste 0 -- -- 79
2021-02-02 03:00:00 7.1 29 Noroeste 39 Noroeste 0 -- -- 90
2021-02-02 02:00:00 7.3 8 Oeste 28 Noroeste 0 -- -- 88
2021-02-02 01:00:00 8 18 Noroeste 35 Noroeste 0 -- -- 84
2021-02-02 00:00:00 7.6 12 Oeste 17 Oeste 0 -- -- 83
2021-02-01 23:00:00 9.2 9 Oeste 37 Sudoeste 0 -- -- 77
2021-02-01 22:00:00 8.6 8 Oeste 34 Oeste 0 -- -- 77
2021-02-01 21:00:00 8.7 4 Este 27 Oeste 0 -- -- 77
2021-02-01 20:00:00 10.5 21 Sudoeste 42 Oeste 0 -- -- 71
2021-02-01 19:00:00 9.7 9 Oeste 36 Sudoeste 0 -- -- 69
2021-02-01 18:00:00 9.5 18 Oeste 37 Oeste 0 -- -- 71
2021-02-01 17:00:00 10.4 24 Oeste 47 Oeste 0 -- -- 69
2021-02-01 16:00:00 10.4 34 Oeste 58 Oeste 0 -- -- 66
2021-02-01 15:00:00 10.2 40 Oeste 68 Oeste 0 -- -- 67
2021-02-01 14:00:00 10.3 41 Oeste 64 Oeste 0 -- -- 64
2021-02-01 13:00:00 11.2 36 Oeste 58 Oeste 0 -- -- 54
2021-02-01 12:00:00 9.4 44 Oeste 69 Oeste 0 -- -- 72
2021-02-01 11:00:00 9.2 38 Oeste 64 Oeste 0 -- -- 72
2021-02-01 10:00:00 8.2 37 Oeste 70 Oeste 0 -- -- 72
2021-02-01 09:00:00 8 42 Oeste 81 Sudoeste 0 -- -- 70
2021-02-01 08:00:00 7.8 43 Oeste 76 Oeste 0 -- -- 68
2021-02-01 07:00:00 7.6 40 Oeste 72 Oeste 0 -- -- 71
2021-02-01 06:00:00 7.4 36 Oeste 67 Sudoeste 0 -- -- 67
2021-02-01 05:00:00 6.9 40 Oeste 73 Oeste 0 -- -- 72
2021-02-01 04:00:00 7.2 38 Oeste 59 Oeste 0 -- -- 71
2021-02-01 03:00:00 7.6 31 Oeste 57 Oeste 0 -- -- 65
2021-02-01 02:00:00 7.9 36 Oeste 60 Sudoeste 0 -- -- 68
2021-02-01 01:00:00 8.3 43 Sudoeste 79 Oeste 0 -- -- 70
2021-02-01 00:00:00 8.7 42 Oeste 72 Oeste 0 -- -- 72
2021-01-31 23:00:00 8.8 42 Oeste 71 Sudoeste 0 -- -- 77
2021-01-31 22:00:00 8.8 36 Oeste 70 Sudoeste 0 -- -- 78
2021-01-31 21:00:00 9.2 40 Oeste 67 Oeste 0 -- -- 76
2021-01-31 20:00:00 9.5 36 Oeste 66 Oeste 0 -- -- 78
2021-01-31 19:00:00 9.8 37 Oeste 66 Oeste 0 -- -- 76
2021-01-31 18:00:00 10 37 Oeste 69 Oeste 0.4 -- -- 79
2021-01-31 17:00:00 10.4 34 Oeste 61 Oeste 0.4 -- -- 83
2021-01-31 16:00:00 10.7 37 Oeste 63 Oeste 0 -- -- 84
2021-01-31 15:00:00 10.7 40 Oeste 63 Sudoeste 0 -- -- 85
2021-01-31 14:00:00 10.6 40 Oeste 73 Sudoeste 0.2 -- -- 84
2021-01-31 13:00:00 10.5 40 Oeste 77 Sudoeste 0.2 -- -- 83
2021-01-31 12:00:00 10.1 41 Oeste 78 Sudoeste 0 -- -- 82
2021-01-31 11:00:00 9.7 41 Oeste 77 Oeste 0.4 -- -- 82
2021-01-31 10:00:00 9.1 49 Oeste 84 Sudoeste 0 -- -- 82
2021-01-31 09:00:00 8.8 44 Oeste 78 Sudoeste 0 -- -- 81
2021-01-31 08:00:00 7.3 32 Oeste 73 Oeste 0.4 -- -- 83
2021-01-31 07:00:00 6.2 36 Oeste 72 Oeste 0.4 -- -- 84
2021-01-31 06:00:00 5.4 45 Oeste 70 Sudoeste 0.6 -- -- 83
2021-01-31 05:00:00 4.8 39 Oeste 64 Oeste 0 -- -- 82
2021-01-31 04:00:00 4.5 31 Oeste 78 Oeste 0 -- -- 77
2021-01-31 03:00:00 4.8 41 Oeste 67 Oeste 0 -- -- 70
2021-01-31 02:00:00 4.1 43 Oeste 71 Sudoeste 0 -- -- 79
2021-01-31 01:00:00 4.1 49 Oeste 73 Oeste 0 -- -- 82
2021-01-31 00:00:00 3.9 45 Oeste 77 Oeste 0.4 -- -- 86
2021-01-30 23:00:00 3.9 46 Oeste 82 Oeste 0.6 -- -- 88
2021-01-30 22:00:00 4 45 Oeste 69 Oeste 0.2 -- -- 86
2021-01-30 21:00:00 4.2 40 Oeste 73 Oeste 0.4 -- -- 84
2021-01-30 20:00:00 4.4 47 Oeste 75 Oeste 0.6 -- -- 86
2021-01-30 19:00:00 4.5 38 Oeste 76 Sudoeste 0 -- -- 81
2021-01-30 18:00:00 4.8 43 Oeste 76 Oeste 0.2 -- -- 79
2021-01-30 17:00:00 4.4 29 Oeste 54 Oeste 0.6 -- -- 87
2021-01-30 16:00:00 5.6 30 Sudoeste 64 Oeste 0.2 -- -- 76
2021-01-30 15:00:00 7.3 37 Oeste 67 Oeste 0 -- -- 63
2021-01-30 14:00:00 7.2 33 Oeste 68 Sudoeste 0 -- -- 66
2021-01-30 13:00:00 6.8 48 Sudoeste 75 Sudoeste 0 -- -- 69
2021-01-30 12:00:00 6 41 Oeste 72 Sudoeste 0.2 -- -- 81
2021-01-30 11:00:00 6.2 41 Oeste 66 Oeste 0 -- -- 74
2021-01-30 10:00:00 5.4 31 Oeste 64 Sudoeste 0.2 -- -- 79
2021-01-30 09:00:00 5.7 33 Oeste 59 Sudoeste 0 -- -- 81
2021-01-30 08:00:00 5.8 35 Oeste 59 Oeste 1.8 -- -- 86
2021-01-30 07:00:00 7 32 Oeste 68 Sudoeste 1.2 -- -- 85
2021-01-30 06:00:00 6.4 19 Sudoeste 59 Oeste 2.6 -- -- 86
2021-01-30 05:00:00 7.7 29 Oeste 55 Oeste 5.2 -- -- 86
2021-01-30 04:00:00 9.5 26 Oeste 58 Sudoeste 0 -- -- 72
2021-01-30 03:00:00 11.5 44 Sudoeste 67 Sudoeste 0 -- -- 49
2021-01-30 02:00:00 12.1 37 Sudoeste 69 Sudoeste 0 -- -- 50
2021-01-30 01:00:00 14.4 32 Sudoeste 66 Sudoeste 0 -- -- 34
2021-01-30 00:00:00 12.9 32 Sudoeste 57 Sudoeste 0 -- -- 43